Aérodrome :
LOGIN :

S'inscrire | Disclaimer

   EN    FR    IT 

 










Légende :    VFR   VFR Marginal   IFR   IFR Intensif   IFR Très Intensif
Visi : 
Plafond : 
>= 8 km
>= 3000ft
5 à 8 km
1000 à 3000 ft
1500m à 5 km
500 à 1000 ft
800 à 1500m
200 à 500 ft
< 800m
< 200 ft
Symboles :   Orages  Brouillard  Fortes neiges  Fortes précipitations  Vent > 20 kt
SIGMETs :   Divers  Orages  Givrage  Turbulence  Onde Orograph.  Cendres Volcan.







- Altitude de l'aérodrome : 776 ft
- Code IATA : RMS


ETAR - Ramstein Air Base

DERNIER METAR :
  • 221556Z 00000KT 9999 CLR 08/06 A2983 RMK AO2A SLP109 T00830056 $

METARs EXPIRÉS :
  • 221456Z 00000KT 9999 CLR 13/07 A2984 RMK AO2A SLP110 T01280066 57015 $
  • 221356Z 21006KT 9999 CLR 13/07 A2985 RMK AO2A SLP114 T01300072 $

TAF TAF ETAR
Valide du 22 à 10h jusqu'au 23 à 16h UTC


221008Z 2210/2316 23009KT 9999 FEW160 QNH2989INS
BECMG 2210/2211 23009KT 9999 SKC QNH2975INS
BECMG 2305/2306 21012G20KT 9999 FEW080 QNH2977INS
BECMG 2307/2308 21015G25KT 9999 FEW060 510004 QNH2980INS
TEMPO 2308/2315 21025G35KT 520004 TX14/2213Z TN06/2300Z
Pas de NOTAMs connus pour ce terrain.



MET'MAP, la Météo Aéronautique d'un coup d'oeil ! - Copyright ORBIFLY Décembre 2007 - Disclaimer

ORBIFLY MET'MAP TEAM :

Programmation & Développement : Alexandra Zaïnal
Conception & Développement : Baudouin d'Aumeries
Co-Programmation & Développement : Marc-Olivier Méhu
Soutien technique & logistique : Manuel Goepfert

Contact : metmap@orbifly.com




SOURCES & CREDITS :

   NOAA